createdAt,value
2019-02-19T00:04:06.609Z,1.01
2019-02-19T00:09:06.625Z,0.99
2019-02-19T00:14:06.768Z,0.55
2019-02-19T00:19:05.990Z,0.17
2019-02-19T00:23:07.271Z,0.08
2019-02-19T00:28:07.358Z,-0.16
2019-02-19T00:33:06.456Z,0.45
2019-02-19T00:38:06.891Z,0.65
2019-02-19T00:43:06.632Z,0.74
2019-02-19T00:48:05.996Z,0.86
2019-02-19T00:53:07.100Z,0.58
2019-02-19T00:58:06.487Z,1.11
2019-02-19T01:03:06.909Z,1.38
2019-02-19T01:07:06.791Z,1.86
2019-02-19T01:12:06.499Z,1.2
2019-02-19T01:17:06.746Z,0.39
2019-02-19T01:22:06.921Z,0.2
2019-02-19T01:27:06.348Z,-0.09
2019-02-19T01:32:07.318Z,-0.07
2019-02-19T01:37:06.705Z,-0.3
2019-02-19T01:41:07.291Z,-0.35
2019-02-19T01:46:07.187Z,0.03
2019-02-19T01:51:06.621Z,0.16
2019-02-19T01:56:06.742Z,0.07
2019-02-19T02:01:07.099Z,0.29
2019-02-19T02:06:08.634Z,0.05
2019-02-19T02:11:07.673Z,0.69
2019-02-19T02:16:06.528Z,1.05
2019-02-19T02:20:06.679Z,1.03
2019-02-19T02:21:06.472Z,1.03
2019-02-19T02:25:06.396Z,0.92
2019-02-19T02:30:07.789Z,0.28
2019-02-19T02:35:06.976Z,-0.36
2019-02-19T02:40:06.692Z,-0.75
2019-02-19T02:45:07.238Z,-0.13
2019-02-19T02:50:06.568Z,0.35
2019-02-19T02:54:06.198Z,0.18
2019-02-19T02:59:07.322Z,0.02
2019-02-19T03:04:06.447Z,0.28
2019-02-19T03:09:07.167Z,0.44
2019-02-19T03:14:06.755Z,0.76
2019-02-19T03:19:06.781Z,0.94
2019-02-19T03:24:06.331Z,0.32
2019-02-19T03:29:06.545Z,-0.14
2019-02-19T03:33:06.843Z,-0.82
2019-02-19T03:38:06.751Z,-1.19
2019-02-19T03:43:06.129Z,-1.62
2019-02-19T03:48:07.549Z,-1.57
2019-02-19T03:53:07.469Z,-1.13
2019-02-19T03:58:06.338Z,-0.56
2019-02-19T04:03:06.656Z,-0.31
2019-02-19T04:07:06.553Z,-0.54
2019-02-19T04:12:08.417Z,-0.46
2019-02-19T04:17:07.241Z,-0.3
2019-02-19T04:22:06.214Z,0.05
2019-02-19T04:27:07.057Z,0.15
2019-02-19T04:32:06.675Z,0.02
2019-02-19T04:37:07.577Z,0
2019-02-19T04:42:07.823Z,-0.21
2019-02-19T04:46:07.641Z,-0.39
2019-02-19T04:51:06.556Z,-0.38
2019-02-19T04:56:06.345Z,-0.13
2019-02-19T05:01:07.434Z,-0.15
2019-02-19T05:06:07.233Z,-0.41
2019-02-19T05:11:06.605Z,-0.6
2019-02-19T05:16:06.385Z,-0.49
2019-02-19T05:21:06.367Z,-0.3
2019-02-19T05:25:08.952Z,-0.34
2019-02-19T05:30:08.097Z,0.03
2019-02-19T05:35:07.454Z,0.47
2019-02-19T05:40:06.871Z,0.65
2019-02-19T05:45:09.382Z,0.73
2019-02-19T05:50:07.432Z,0.94
2019-02-19T05:55:06.370Z,0.98
2019-02-19T06:00:08.342Z,1.28
2019-02-19T06:04:07.743Z,1.57
2019-02-19T06:09:07.068Z,1.67
2019-02-19T06:14:08.007Z,1.73
2019-02-19T06:19:06.632Z,1.69
2019-02-19T06:24:07.605Z,1.57
2019-02-19T06:29:06.483Z,1.82
2019-02-19T06:34:06.430Z,2.2
2019-02-19T06:39:07.302Z,2.41
2019-02-19T06:43:07.305Z,2.19
2019-02-19T06:48:07.488Z,2.16
2019-02-19T06:53:06.328Z,2.16
2019-02-19T06:58:07.064Z,2.16
2019-02-19T07:03:07.956Z,2.2
2019-02-19T07:08:06.899Z,2.53
2019-02-19T07:13:07.363Z,2.66
2019-02-19T07:17:16.034Z,2.59
2019-02-19T07:22:06.977Z,2.81
2019-02-19T07:27:07.918Z,3.04
2019-02-19T07:32:06.661Z,3.49
2019-02-19T07:37:07.684Z,3.89
2019-02-19T07:42:06.111Z,4.13
2019-02-19T07:47:07.416Z,4.21
2019-02-19T07:51:06.431Z,4.59
2019-02-19T07:56:07.524Z,4.96
2019-02-19T08:01:06.556Z,5.32
2019-02-19T08:06:07.437Z,5.55
2019-02-19T08:11:06.777Z,5.78
2019-02-19T08:16:07.622Z,5.47
2019-02-19T08:21:06.560Z,5.34
2019-02-19T08:26:07.453Z,5.66
2019-02-19T08:30:07.918Z,6.06
2019-02-19T08:35:07.947Z,6.17
2019-02-19T08:40:06.193Z,6.52
2019-02-19T08:45:09.037Z,6.97
2019-02-19T08:50:06.917Z,7.3
2019-02-19T08:55:07.906Z,7.61
2019-02-19T09:00:08.603Z,7.94
2019-02-19T09:05:07.075Z,8.57
2019-02-19T09:09:07.508Z,8.98
2019-02-19T09:14:07.470Z,8.98
2019-02-19T09:19:06.165Z,9.24
2019-02-19T09:24:10.609Z,8.96
2019-02-19T09:29:06.342Z,9.19
2019-02-19T09:34:08.043Z,9.09
2019-02-19T09:39:07.305Z,9.07
2019-02-19T09:44:07.182Z,9.03
2019-02-19T09:48:07.254Z,9.07
2019-02-19T09:53:06.277Z,9.1
2019-02-19T09:58:07.259Z,9.24
2019-02-19T10:03:07.108Z,9.17
2019-02-19T10:08:06.940Z,8.73
2019-02-19T10:13:07.553Z,8.43
2019-02-19T10:18:10.204Z,8.57
2019-02-19T10:22:06.872Z,9.26
2019-02-19T10:27:07.652Z,9.83
2019-02-19T10:32:07.079Z,10.01
2019-02-19T10:37:07.838Z,10.62
2019-02-19T10:42:06.172Z,9.86
2019-02-19T10:47:08.004Z,9.71
2019-02-19T10:52:06.902Z,9.18
2019-02-19T10:56:07.709Z,9.03
2019-02-19T11:01:06.999Z,9
2019-02-19T11:06:07.881Z,9.08
2019-02-19T11:11:06.118Z,9.54
2019-02-19T11:16:07.693Z,9.51
2019-02-19T11:21:06.563Z,9.3
2019-02-19T11:26:07.431Z,9.27
2019-02-19T11:31:07.522Z,9.12
2019-02-19T11:35:08.141Z,9.22
2019-02-19T11:40:06.347Z,9.18
2019-02-19T11:45:07.753Z,9.36
2019-02-19T11:50:07.838Z,9.46
2019-02-19T11:55:07.859Z,9.62
2019-02-19T12:00:09.010Z,9.69
2019-02-19T12:05:07.082Z,9.7
2019-02-19T12:09:08.396Z,9.66
2019-02-19T12:14:07.415Z,9.83
2019-02-19T12:15:07.542Z,9.83
2019-02-19T12:19:06.591Z,10.24
2019-02-19T12:24:07.523Z,10.09
2019-02-19T12:29:06.322Z,9.74
2019-02-19T12:34:06.394Z,9.83
2019-02-19T12:39:06.652Z,9.88
2019-02-19T12:44:06.816Z,9.81
2019-02-19T12:48:06.851Z,9.97
2019-02-19T12:53:07.853Z,10.16
2019-02-19T12:58:07.767Z,10.43
2019-02-19T13:03:08.069Z,10.53
2019-02-19T13:08:07.883Z,10.29
2019-02-19T13:13:07.163Z,10.45
2019-02-19T13:18:07.190Z,10.36
2019-02-19T13:23:07.196Z,10.65
2019-02-19T13:27:07.029Z,10.45
2019-02-19T13:32:06.059Z,10.9
2019-02-19T13:37:06.821Z,11.08
2019-02-19T13:42:06.177Z,10.85
2019-02-19T13:47:06.857Z,10.85
2019-02-19T13:52:07.758Z,12.06
2019-02-19T13:57:07.042Z,10.6
2019-02-19T14:01:06.771Z,10.13
2019-02-19T14:06:07.715Z,11.3
2019-02-19T14:11:08.063Z,12.04
2019-02-19T14:16:06.286Z,11.2
2019-02-19T14:21:07.296Z,11.39
2019-02-19T14:26:06.129Z,11.52
2019-02-19T14:31:07.041Z,12.12
2019-02-19T14:36:07.816Z,10.43
2019-02-19T14:40:10.121Z,9.8
2019-02-19T14:45:07.649Z,9.83
2019-02-19T14:50:06.983Z,10.42
2019-02-19T14:55:06.872Z,10.33
2019-02-19T15:00:08.484Z,9.93
2019-02-19T15:05:06.989Z,9.42
2019-02-19T15:10:06.415Z,9.18
2019-02-19T15:14:07.446Z,9.04
2019-02-19T15:19:07.673Z,8.79
2019-02-19T15:24:07.470Z,8.6
2019-02-19T15:29:07.296Z,8.2
2019-02-19T15:34:08.032Z,8.01
2019-02-19T15:39:08.371Z,7.96
2019-02-19T15:44:07.261Z,7.98
2019-02-19T15:48:07.323Z,8.03
2019-02-19T15:49:07.535Z,8.03
2019-02-19T15:53:06.430Z,8.22
2019-02-19T15:58:06.296Z,8.09
2019-02-19T16:03:07.704Z,7.86
2019-02-19T16:08:07.506Z,7.73
2019-02-19T16:13:07.853Z,7.58
2019-02-19T16:18:08.780Z,7.5
2019-02-19T16:22:09.106Z,7.33
2019-02-19T16:27:07.131Z,7.63
2019-02-19T16:32:07.207Z,7.89
2019-02-19T16:37:06.037Z,8.17
2019-02-19T16:42:07.359Z,8.11
2019-02-19T16:47:07.179Z,8.17
2019-02-19T16:52:06.015Z,8
2019-02-19T16:56:07.288Z,7.96
2019-02-19T17:01:06.270Z,8.04
2019-02-19T17:02:06.357Z,8.04
2019-02-19T17:06:06.390Z,8.06
2019-02-19T17:11:06.904Z,7.9
2019-02-19T17:16:07.286Z,7.94
2019-02-19T17:21:07.362Z,7.9
2019-02-19T17:26:08.076Z,7.67
2019-02-19T17:30:08.563Z,7.45
2019-02-19T17:35:06.482Z,7.69
2019-02-19T17:40:06.696Z,7.88
2019-02-19T17:45:07.565Z,7.62
2019-02-19T17:50:06.546Z,7.52
2019-02-19T17:55:06.380Z,7.33
2019-02-19T18:00:09.040Z,7.37
2019-02-19T18:05:07.425Z,7.24
2019-02-19T18:09:07.369Z,6.97
2019-02-19T18:14:08.055Z,6.73
2019-02-19T18:19:06.815Z,6.66
2019-02-19T18:24:06.721Z,6.84
2019-02-19T18:29:06.543Z,6.96
2019-02-19T18:34:06.356Z,6.91
2019-02-19T18:39:07.623Z,6.88
2019-02-19T18:44:07.485Z,6.87
2019-02-19T18:48:07.947Z,6.82
2019-02-19T18:53:06.709Z,6.95
2019-02-19T18:58:07.804Z,6.72
2019-02-19T19:03:07.486Z,6.68
2019-02-19T19:08:06.194Z,6.81
2019-02-19T19:13:06.572Z,7.15
2019-02-19T19:18:07.602Z,7.18
2019-02-19T19:22:06.586Z,7.02
2019-02-19T19:27:07.379Z,6.88
2019-02-19T19:32:06.871Z,6.69
2019-02-19T19:37:09.109Z,6.89
2019-02-19T19:42:06.375Z,6.96
2019-02-19T19:47:07.277Z,6.72
2019-02-19T19:52:06.257Z,6.72
2019-02-19T19:57:07.185Z,6.71
2019-02-19T20:02:06.080Z,6.6
2019-02-19T20:07:06.846Z,6.83
2019-02-19T20:11:07.548Z,6.88
2019-02-19T20:16:07.468Z,7.33
2019-02-19T20:21:06.358Z,7.35
2019-02-19T20:26:07.404Z,7.33
2019-02-19T20:31:06.904Z,7.17
2019-02-19T20:36:06.865Z,7.15
2019-02-19T20:41:06.472Z,6.99
2019-02-19T20:46:06.480Z,6.99
2019-02-19T20:50:07.693Z,7.47
2019-02-19T20:55:07.696Z,7.02
2019-02-19T21:00:08.736Z,6.64
2019-02-19T21:05:07.406Z,6
2019-02-19T21:10:06.694Z,5.79
2019-02-19T21:15:08.412Z,5.89
2019-02-19T21:20:06.103Z,6.08
2019-02-19T21:24:08.264Z,5.85
2019-02-19T21:25:06.349Z,5.85
2019-02-19T21:29:06.263Z,5.67
2019-02-19T21:34:06.996Z,5.66
2019-02-19T21:39:06.982Z,5.57
2019-02-19T21:44:06.828Z,5.26
2019-02-19T21:49:07.628Z,5.32
2019-02-19T21:54:07.480Z,5.15
2019-02-19T21:58:05.920Z,5.13
2019-02-19T22:03:07.437Z,4.86
2019-02-19T22:08:06.137Z,4.76
2019-02-19T22:13:06.259Z,4.38
2019-02-19T22:18:06.067Z,4.28
2019-02-19T22:23:08.017Z,4.09
2019-02-19T22:28:06.857Z,4.02
2019-02-19T22:32:07.374Z,3.97
2019-02-19T22:37:07.428Z,3.62
2019-02-19T22:42:06.911Z,3.18
2019-02-19T22:47:06.402Z,3.02
2019-02-19T22:52:12.269Z,2.76
2019-02-19T22:57:07.419Z,2.34
2019-02-19T23:02:06.271Z,2.32
2019-02-19T23:07:06.164Z,3.2
2019-02-19T23:11:07.284Z,3.35
2019-02-19T23:16:06.565Z,3.08
2019-02-19T23:21:06.338Z,3.29
2019-02-19T23:26:06.187Z,3.82
2019-02-19T23:31:06.981Z,4.29
2019-02-19T23:36:06.778Z,4.83
2019-02-19T23:41:07.154Z,4.64
2019-02-19T23:46:06.873Z,4.5
2019-02-19T23:50:07.199Z,4.32
2019-02-19T23:55:06.139Z,4.28
